Time;durP1;ratioP1;P1;durP2;ratioP2;P2;SDS_P1;SDS_P2;PMS_P1;PMS_P2;Temp;Humidity;BMP_temperature;BMP_pressure;BME280_temperature;BME280_humidity;BME280_pressure;Samples;Min_cycle;Max_cycle;Signal;HPM_P1;HPM_P2
2023/10/01 00:01:43;;;;;;;6.22;4.72;;;21.30;99.90;;;;;;5088621;28;20008;-60
2023/10/01 00:04:10;;;;;;;7.95;5.20;;;21.40;99.90;;;;;;5085509;28;20024;-61
2023/10/01 00:06:37;;;;;;;6.20;4.72;;;21.50;99.90;;;;;;5085233;28;20063;-61
2023/10/01 00:09:07;;;;;;;8.88;5.05;;;21.50;99.90;;;;;;5087264;28;20139;-61
2023/10/01 00:11:34;;;;;;;7.78;5.53;;;21.60;99.90;;;;;;5088231;28;20506;-61
2023/10/01 00:14:01;;;;;;;6.25;5.40;;;21.60;99.90;;;;;;5086463;28;20020;-62
2023/10/01 00:16:29;;;;;;;7.00;4.50;;;21.60;99.90;;;;;;5071751;28;20045;-62
2023/10/01 00:18:55;;;;;;;7.45;4.60;;;21.50;99.90;;;;;;5071623;28;20433;-62
2023/10/01 00:21:20;;;;;;;7.22;4.95;;;21.40;99.90;;;;;;5072464;28;20104;-63
2023/10/01 00:23:46;;;;;;;6.75;4.97;;;21.30;99.90;;;;;;5072099;28;20027;-62
2023/10/01 00:26:12;;;;;;;7.57;5.35;;;21.30;99.90;;;;;;5071884;28;20025;-62
2023/10/01 00:28:37;;;;;;;8.10;5.90;;;21.30;99.90;;;;;;5072006;28;20029;-62
2023/10/01 00:31:03;;;;;;;6.68;5.40;;;21.20;99.90;;;;;;5071522;28;20082;-62
2023/10/01 00:33:29;;;;;;;7.30;5.05;;;21.30;99.90;;;;;;5071848;28;20012;-62
2023/10/01 00:35:55;;;;;;;6.30;4.68;;;21.30;99.90;;;;;;5071784;28;20032;-62
2023/10/01 00:38:21;;;;;;;6.90;4.75;;;21.20;99.90;;;;;;5071970;28;20544;-62
2023/10/01 00:40:49;;;;;;;5.78;4.20;;;21.00;99.90;;;;;;5071778;28;20210;-62
2023/10/01 00:43:14;;;;;;;9.40;4.57;;;20.80;99.90;;;;;;5070718;28;20020;-61
2023/10/01 00:45:41;;;;;;;6.18;4.20;;;20.70;99.90;;;;;;5071350;28;20024;-61
2023/10/01 00:48:14;;;;;;;6.30;3.95;;;20.70;99.90;;;;;;5085300;28;20486;-62
2023/10/01 00:50:40;;;;;;;7.30;3.70;;;20.60;99.90;;;;;;5091837;28;20036;-62
2023/10/01 00:53:08;;;;;;;5.15;3.70;;;20.40;99.90;;;;;;5091734;28;20402;-62
2023/10/01 00:55:34;;;;;;;5.88;3.95;;;20.40;99.90;;;;;;5091634;28;20501;-62
2023/10/01 00:58:00;;;;;;;5.25;3.75;;;20.40;99.90;;;;;;5090248;28;20035;-62
2023/10/01 01:00:26;;;;;;;5.50;3.90;;;20.30;99.90;;;;;;5091318;28;20043;-62
2023/10/01 01:03:05;;;;;;;6.25;4.05;;;20.20;99.90;;;;;;5091683;28;20028;-62
2023/10/01 01:05:34;;;;;;;5.63;3.90;;;20.20;99.90;;;;;;5091475;28;20043;-62
2023/10/01 01:08:20;;;;;;;7.63;4.28;;;20.10;99.90;;;;;;5091731;28;20047;-62
2023/10/01 01:10:49;;;;;;;6.72;4.50;;;20.00;99.90;;;;;;5091637;28;20036;-62
2023/10/01 01:13:16;;;;;;;5.68;3.83;;;19.90;99.90;;;;;;5091206;28;20044;-62
2023/10/01 01:15:51;;;;;;;6.13;4.05;;;19.90;99.90;;;;;;5091447;28;20103;-61
2023/10/01 01:18:21;;;;;;;6.30;3.80;;;19.80;99.90;;;;;;5091321;28;20107;-62
2023/10/01 01:20:48;;;;;;;6.72;3.90;;;19.80;99.90;;;;;;5090592;28;20024;-61
2023/10/01 01:23:18;;;;;;;6.85;4.15;;;19.80;99.90;;;;;;5091691;28;20457;-62
2023/10/01 01:25:52;;;;;;;6.55;4.00;;;19.80;99.90;;;;;;5091203;28;20081;-62
2023/10/01 01:28:24;;;;;;;6.32;3.58;;;19.70;99.90;;;;;;5091083;28;20020;-62
2023/10/01 01:30:53;;;;;;;6.25;4.15;;;19.80;99.90;;;;;;5091125;28;20055;-62
2023/10/01 01:33:26;;;;;;;5.93;3.33;;;20.00;99.90;;;;;;5091206;28;20024;-62
2023/10/01 01:35:54;;;;;;;5.20;3.42;;;20.20;99.90;;;;;;5091355;28;20039;-62
2023/10/01 01:38:23;;;;;;;6.70;3.40;;;20.40;99.90;;;;;;5091613;28;20032;-62
2023/10/01 01:40:51;;;;;;;5.05;3.47;;;20.50;99.90;;;;;;5091137;28;20444;-62
2023/10/01 01:43:21;;;;;;;4.85;3.25;;;20.60;99.90;;;;;;5090862;28;20028;-62
2023/10/01 01:45:54;;;;;;;10.73;3.45;;;20.60;99.90;;;;;;5091082;28;20047;-61
2023/10/01 01:48:34;;;;;;;5.53;3.15;;;20.70;99.90;;;;;;5091098;28;20544;-62
2023/10/01 01:51:01;;;;;;;4.63;3.30;;;20.70;99.90;;;;;;5091082;28;20047;-63
2023/10/01 01:53:35;;;;;;;5.85;3.80;;;20.80;99.90;;;;;;5089711;28;20028;-62
2023/10/01 01:56:08;;;;;;;7.55;3.55;;;20.80;99.90;;;;;;5091327;28;20026;-62
2023/10/01 01:58:35;;;;;;;4.57;3.22;;;20.70;99.90;;;;;;5090873;28;20397;-62
2023/10/01 02:01:08;;;;;;;6.53;3.40;;;20.70;99.90;;;;;;5091067;28;20078;-62
2023/10/01 02:03:38;;;;;;;5.53;3.15;;;20.70;99.90;;;;;;5090962;28;20082;-62
2023/10/01 02:06:08;;;;;;;6.07;3.35;;;20.70;99.90;;;;;;5090831;28;20036;-62
2023/10/01 02:08:49;;;;;;;5.75;3.38;;;20.70;99.90;;;;;;5090790;28;20543;-62
2023/10/01 02:11:16;;;;;;;4.28;3.40;;;20.50;99.90;;;;;;5090610;28;20135;-62
2023/10/01 02:13:45;;;;;;;5.82;3.70;;;20.40;99.90;;;;;;5091328;28;20035;-62
2023/10/01 02:16:18;;;;;;;7.45;3.50;;;20.20;99.90;;;;;;5090818;28;20039;-62
2023/10/01 02:18:56;;;;;;;6.53;3.63;;;20.00;99.90;;;;;;5090789;28;20020;-61
2023/10/01 02:21:43;;;;;;;5.53;3.55;;;19.90;99.90;;;;;;5090784;28;20036;-62
2023/10/01 02:24:13;;;;;;;5.68;3.47;;;19.80;99.90;;;;;;5090635;28;20091;-62
2023/10/01 02:26:40;;;;;;;5.25;3.53;;;19.80;99.90;;;;;;5090632;28;20020;-62
2023/10/01 02:29:07;;;;;;;5.35;4.10;;;19.70;99.90;;;;;;5090715;28;20020;-62
2023/10/01 02:31:35;;;;;;;4.78;3.63;;;19.60;99.90;;;;;;5090705;28;20048;-62
2023/10/01 02:34:02;;;;;;;6.63;3.90;;;19.60;99.90;;;;;;5094879;28;20415;-61
2023/10/01 02:36:30;;;;;;;6.03;3.60;;;19.60;99.90;;;;;;5094348;28;20476;-62
2023/10/01 02:38:56;;;;;;;5.85;3.28;;;19.60;99.90;;;;;;5094257;28;20024;-62
2023/10/01 02:41:26;;;;;;;6.32;3.38;;;19.60;99.90;;;;;;5093916;28;20317;-62
2023/10/01 02:43:55;;;;;;;6.25;3.60;;;19.60;99.90;;;;;;5094572;28;20035;-62
2023/10/01 02:46:27;;;;;;;5.13;3.65;;;19.70;99.90;;;;;;5094244;28;20423;-62
2023/10/01 02:48:59;;;;;;;4.80;3.20;;;19.60;99.90;;;;;;5094257;28;20028;-62
2023/10/01 02:51:37;;;;;;;4.90;3.60;;;19.60;99.90;;;;;;5094349;28;20081;-62
2023/10/01 02:54:06;;;;;;;5.55;3.55;;;19.50;99.90;;;;;;5093918;28;20081;-62
2023/10/01 02:56:34;;;;;;;5.28;3.22;;;19.50;99.90;;;;;;5093595;28;20027;-60
2023/10/01 02:59:07;;;;;;;6.03;3.20;;;19.50;99.90;;;;;;5094022;28;20443;-62
2023/10/01 03:01:34;;;;;;;5.80;3.60;;;19.50;99.90;;;;;;5094005;28;20028;-62
2023/10/01 03:04:05;;;;;;;4.55;3.20;;;19.50;99.90;;;;;;5093668;28;20069;-62
2023/10/01 03:06:33;;;;;;;4.07;3.30;;;19.50;99.90;;;;;;5093938;28;20406;-62
2023/10/01 03:11:25;;;;;;;6.60;3.72;;;19.90;99.90;;;;;;5093532;28;20082;-62
2023/10/01 03:13:54;;;;;;;7.80;3.53;;;20.10;99.90;;;;;;5093844;28;20058;-62
2023/10/01 03:16:42;;;;;;;5.60;3.65;;;20.30;99.90;;;;;;5093988;28;20112;-62
2023/10/01 03:19:18;;;;;;;5.38;3.47;;;20.30;99.90;;;;;;5093616;28;20028;-62
2023/10/01 03:22:13;;;;;;;5.38;3.55;;;20.40;99.90;;;;;;5093771;28;20027;-62
2023/10/01 03:24:45;;;;;;;5.72;3.67;;;20.50;99.90;;;;;;5092996;28;20494;-62
2023/10/01 03:27:33;;;;;;;4.90;3.60;;;20.50;99.90;;;;;;5093737;28;20055;-62
2023/10/01 03:30:05;;;;;;;4.30;3.60;;;20.60;99.90;;;;;;5093158;28;20512;-62
2023/10/01 03:32:33;;;;;;;6.32;3.60;;;20.60;99.90;;;;;;5093186;28;20102;-62
2023/10/01 03:35:07;;;;;;;4.88;3.53;;;20.60;99.90;;;;;;5093163;28;20036;-62
2023/10/01 03:37:38;;;;;;;4.63;3.53;;;20.60;99.90;;;;;;5093122;28;20028;-62
2023/10/01 03:40:35;;;;;;;5.47;3.75;;;20.60;99.90;;;;;;5092691;28;20035;-62
2023/10/01 03:42:54;;;;;;;5.38;3.65;;;20.60;99.90;;;;;;5092733;28;20032;-62
2023/10/01 03:47:58;;;;;;;6.72;4.38;;;20.40;99.90;;;;;;5092806;28;20020;-62
2023/10/01 03:50:25;;;;;;;5.60;3.70;;;20.20;99.90;;;;;;5092802;28;20371;-62
2023/10/01 03:52:54;;;;;;;4.70;3.78;;;20.10;99.90;;;;;;5093082;28;20039;-62
2023/10/01 03:55:31;;;;;;;5.35;3.70;;;20.00;99.90;;;;;;5092708;28;20020;-62
2023/10/01 03:58:07;;;;;;;4.78;3.65;;;19.90;99.90;;;;;;5092728;28;20513;-62
2023/10/01 04:03:07;;;;;;;6.20;3.60;;;19.70;99.90;;;;;;5092673;28;20028;-62
2023/10/01 04:05:34;;;;;;;5.10;3.35;;;19.60;99.90;;;;;;5092434;28;20028;-62
2023/10/01 04:08:10;;;;;;;6.05;3.38;;;19.60;99.90;;;;;;5092180;28;20520;-62
2023/10/01 04:10:38;;;;;;;5.10;3.47;;;19.50;99.90;;;;;;5092438;28;20036;-61
2023/10/01 04:13:20;;;;;;;5.05;3.60;;;19.40;99.90;;;;;;5092581;28;20073;-62
2023/10/01 04:16:07;;;;;;;4.10;3.47;;;19.40;99.90;;;;;;5092404;28;20081;-61
2023/10/01 04:18:34;;;;;;;4.57;3.03;;;19.30;99.90;;;;;;5092732;28;20103;-62
2023/10/01 04:23:30;;;;;;;4.88;3.47;;;19.20;99.90;;;;;;5091869;28;20115;-62
2023/10/01 04:26:04;;;;;;;5.32;3.80;;;19.20;99.90;;;;;;5092179;28;20063;-62
2023/10/01 04:28:44;;;;;;;5.40;3.33;;;19.10;99.90;;;;;;5092271;28;20401;-62
2023/10/01 04:31:14;;;;;;;7.13;3.33;;;19.10;99.90;;;;;;5092056;28;20119;-62
2023/10/01 04:33:47;;;;;;;7.65;3.40;;;19.00;99.90;;;;;;5091993;28;20031;-61
2023/10/01 04:36:16;;;;;;;4.65;3.30;;;19.00;99.90;;;;;;5091667;28;20397;-62
2023/10/01 04:38:48;;;;;;;5.65;3.20;;;19.00;99.90;;;;;;5092021;28;20039;-62
2023/10/01 04:41:18;;;;;;;6.63;3.42;;;19.10;99.90;;;;;;5091905;28;20489;-62
2023/10/01 04:44:06;;;;;;;4.93;3.45;;;19.40;99.90;;;;;;5092417;28;20038;-62
2023/10/01 04:46:37;;;;;;;5.07;3.42;;;19.50;99.90;;;;;;5091763;28;20158;-61
2023/10/01 04:49:08;;;;;;;7.93;4.03;;;19.70;99.90;;;;;;5091864;28;20035;-62
2023/10/01 04:51:46;;;;;;;6.10;4.05;;;19.70;99.90;;;;;;5091682;28;20410;-62
2023/10/01 04:54:17;;;;;;;6.45;4.00;;;19.80;99.90;;;;;;5092151;28;20466;-62
2023/10/01 04:56:48;;;;;;;5.95;3.83;;;19.80;99.90;;;;;;5090720;28;20174;-62
2023/10/01 04:59:15;;;;;;;6.43;3.67;;;19.80;99.90;;;;;;5091623;28;20153;-62
2023/10/01 05:01:41;;;;;;;4.70;3.40;;;19.80;99.90;;;;;;5090336;28;20494;-61
2023/10/01 05:04:11;;;;;;;6.03;3.40;;;19.80;99.90;;;;;;5091362;28;20032;-62
2023/10/01 05:06:37;;;;;;;4.68;3.35;;;19.70;99.90;;;;;;5091494;28;20077;-62
2023/10/01 05:09:07;;;;;;;4.97;3.30;;;19.70;99.90;;;;;;5091404;28;20072;-62
2023/10/01 05:11:33;;;;;;;4.03;3.17;;;19.70;99.90;;;;;;5091476;28;20028;-62
2023/10/01 05:13:58;;;;;;;4.93;3.38;;;19.80;99.90;;;;;;5091438;28;20027;-62
2023/10/01 05:16:28;;;;;;;6.13;3.88;;;19.70;99.90;;;;;;5091826;28;20166;-62
2023/10/01 05:19:10;;;;;;;4.05;3.40;;;19.50;99.90;;;;;;5091419;28;20024;-62
2023/10/01 05:21:49;;;;;;;5.57;3.35;;;19.40;99.90;;;;;;5091115;28;20067;-62
2023/10/01 05:24:16;;;;;;;5.07;3.45;;;19.10;99.90;;;;;;5091251;28;20059;-62
2023/10/01 05:26:43;;;;;;;4.50;3.40;;;19.10;99.90;;;;;;5091617;28;20576;-62
2023/10/01 05:29:13;;;;;;;4.93;3.30;;;19.00;99.90;;;;;;5091201;28;20027;-61
2023/10/01 05:31:40;;;;;;;6.07;3.30;;;18.80;99.90;;;;;;5091166;28;20036;-61
2023/10/01 05:34:05;;;;;;;4.72;3.17;;;18.80;99.90;;;;;;5091160;28;20024;-62
2023/10/01 05:36:32;;;;;;;4.22;3.22;;;18.70;99.90;;;;;;5091363;28;20032;-62
2023/10/01 05:39:00;;;;;;;5.45;3.30;;;18.60;99.90;;;;;;5091259;28;20027;-62
2023/10/01 05:41:35;;;;;;;4.85;3.10;;;18.60;99.90;;;;;;5091070;28;20517;-62
2023/10/01 05:44:04;;;;;;;4.93;3.17;;;18.50;99.90;;;;;;5091492;28;20032;-62
2023/10/01 05:46:30;;;;;;;5.30;3.50;;;18.50;99.90;;;;;;5091008;28;20101;-62
2023/10/01 05:49:00;;;;;;;5.60;3.35;;;18.40;99.90;;;;;;5090859;28;20024;-62
2023/10/01 05:54:14;;;;;;;5.05;3.20;;;18.30;99.90;;;;;;5091279;28;20031;-62
2023/10/01 05:56:47;;;;;;;7.10;3.83;;;18.30;99.90;;;;;;5091015;28;20418;-61
2023/10/01 05:59:14;;;;;;;6.53;3.35;;;18.30;99.90;;;;;;5090952;28;20039;-62
2023/10/01 06:01:41;;;;;;;7.75;3.42;;;18.20;99.90;;;;;;5091008;28;20036;-61
2023/10/01 06:04:12;;;;;;;4.32;3.20;;;18.20;99.90;;;;;;5090499;28;20077;-62
2023/10/01 06:06:42;;;;;;;5.38;3.45;;;18.20;99.90;;;;;;5091209;28;20027;-62
2023/10/01 06:09:14;;;;;;;5.32;3.45;;;18.10;99.90;;;;;;5094795;28;20406;-62
2023/10/01 06:12:00;;;;;;;4.88;3.10;;;18.10;99.90;;;;;;5095192;28;20090;-62
2023/10/01 06:14:41;;;;;;;5.78;3.47;;;18.40;99.90;;;;;;5095156;28;20050;-62
2023/10/01 06:17:10;;;;;;;5.55;3.42;;;18.70;99.90;;;;;;5094762;28;20028;-62
2023/10/01 06:19:40;;;;;;;5.43;3.42;;;18.90;99.90;;;;;;5094107;28;20030;-62
2023/10/01 06:22:12;;;;;;;4.63;3.00;;;18.90;99.90;;;;;;5094962;28;20093;-61
2023/10/01 06:24:46;;;;;;;4.90;3.38;;;19.10;99.90;;;;;;5094591;28;20277;-61
2023/10/01 06:27:18;;;;;;;;;;;19.30;99.90;;;;;;5094909;28;20398;-60
2023/10/01 06:29:56;;;;;;;4.30;3.20;;;19.40;99.90;;;;;;5094665;28;19915;-60
2023/10/01 06:32:23;;;;;;;5.07;3.30;;;19.40;99.90;;;;;;5094173;28;20032;-61
2023/10/01 06:34:51;;;;;;;4.30;2.90;;;19.60;99.90;;;;;;5094285;28;20028;-61
2023/10/01 06:37:19;;;;;;;4.57;3.03;;;19.60;99.90;;;;;;5094265;28;20028;-61
2023/10/01 06:39:46;;;;;;;4.43;2.90;;;19.60;99.90;;;;;;5094271;28;20055;-61
2023/10/01 06:42:18;;;;;;;6.05;3.42;;;19.70;99.90;;;;;;5094529;28;20082;-61
2023/10/01 06:44:45;;;;;;;4.70;2.90;;;19.80;99.90;;;;;;5093973;28;20024;-61
2023/10/01 06:47:17;;;;;;;5.78;3.15;;;19.80;99.90;;;;;;5092268;28;20028;-62
2023/10/01 06:52:34;;;;;;;4.35;3.03;;;19.70;99.90;;;;;;5076950;28;20036;-61
2023/10/01 06:55:01;;;;;;;4.53;2.72;;;19.60;99.90;;;;;;5082036;28;20032;-61
2023/10/01 06:57:33;;;;;;;5.72;3.03;;;19.40;99.90;;;;;;5073842;28;20477;-61
2023/10/01 07:00:04;;;;;;;4.95;3.35;;;19.40;99.90;;;;;;5073554;28;20032;-61
2023/10/01 07:02:31;;;;;;;4.05;2.95;;;19.30;99.90;;;;;;5075826;28;20021;-61
2023/10/01 07:04:58;;;;;;;4.88;3.17;;;19.20;99.90;;;;;;5084001;28;20520;-61
2023/10/01 07:07:31;;;;;;;4.43;2.95;;;19.20;99.90;;;;;;5082405;28;20040;-61
2023/10/01 07:09:57;;;;;;;3.35;2.83;;;19.20;99.90;;;;;;5073467;28;20029;-61
2023/10/01 07:12:24;;;;;;;5.72;3.20;;;19.10;99.90;;;;;;5087601;28;20106;-61
2023/10/01 07:14:53;;;;;;;4.25;3.03;;;19.20;99.90;;;;;;5085162;28;20031;-61
2023/10/01 07:17:25;;;;;;;4.65;3.05;;;19.20;99.90;;;;;;5073248;28;20086;-61
2023/10/01 07:20:00;;;;;;;6.25;2.90;;;19.20;99.90;;;;;;5072192;28;20017;-60
2023/10/01 07:22:34;;;;;;;4.70;3.17;;;19.20;99.90;;;;;;5081963;28;20607;-60
2023/10/01 07:25:03;;;;;;;4.80;3.10;;;19.30;99.90;;;;;;5093525;28;20030;-60
2023/10/01 07:27:29;;;;;;;2.95;2.30;;;19.30;99.90;;;;;;5092406;28;20035;-60
2023/10/01 07:29:56;;;;;;;4.40;2.97;;;19.40;99.90;;;;;;5084317;28;20479;-61
2023/10/01 07:32:24;;;;;;;4.63;2.90;;;19.50;99.90;;;;;;5073144;28;20040;-60
2023/10/01 07:34:58;;;;;;;5.80;2.85;;;19.70;99.90;;;;;;5072885;28;20142;-61
2023/10/01 07:37:31;;;;;;;3.97;2.78;;;19.90;99.90;;;;;;5073251;28;20039;-61
2023/10/01 07:40:16;;;;;;;4.60;3.13;;;20.00;99.90;;;;;;5072626;28;20029;-60
2023/10/01 07:42:49;;;;;;;4.75;2.70;;;20.00;99.90;;;;;;5072738;28;20457;-61
2023/10/01 07:45:19;;;;;;;4.88;2.90;;;19.90;99.90;;;;;;5075848;28;20032;-62
2023/10/01 07:47:45;;;;;;;4.93;3.08;;;20.00;99.90;;;;;;5081515;28;20055;-62
2023/10/01 07:50:16;;;;;;;4.22;2.78;;;20.20;99.90;;;;;;5089032;28;20028;-62
2023/10/01 07:52:44;;;;;;;5.75;2.60;;;20.30;99.90;;;;;;5093063;28;20027;-62
2023/10/01 07:55:34;;;;;;;3.38;2.50;;;20.60;99.90;;;;;;5088063;28;20474;-62
2023/10/01 07:58:22;;;;;;;5.80;2.95;;;20.80;99.90;;;;;;5074850;28;20119;-61
2023/10/01 08:00:58;;;;;;;5.38;2.75;;;21.00;99.90;;;;;;5089415;28;20500;-61
2023/10/01 08:06:05;;;;;;;3.38;2.63;;;21.30;99.90;;;;;;5087919;28;20569;-61
2023/10/01 08:08:37;;;;;;;5.70;2.97;;;21.40;99.90;;;;;;5072058;28;20045;-62
2023/10/01 08:14:05;;;;;;;6.28;3.30;;;21.60;99.90;;;;;;5049463;28;20441;-61
2023/10/01 08:16:43;;;;;;;5.65;3.17;;;21.70;99.90;;;;;;5049893;28;20029;-62
2023/10/01 08:19:11;;;;;;;7.97;3.20;;;21.80;99.90;;;;;;5065900;28;20029;-61
2023/10/01 08:21:37;;;;;;;5.25;2.78;;;21.80;99.90;;;;;;5070058;28;20406;-62
2023/10/01 08:24:13;;;;;;;3.22;2.45;;;21.90;99.90;;;;;;5069404;28;20120;-62
2023/10/01 08:26:49;;;;;;;4.88;2.70;;;21.90;99.90;;;;;;5069584;28;20028;-62
2023/10/01 08:29:15;;;;;;;3.90;2.70;;;21.90;99.90;;;;;;5069253;28;20024;-62
2023/10/01 08:34:23;;;;;;;4.60;2.60;;;21.70;99.90;;;;;;5069454;28;20029;-63
2023/10/01 08:36:55;;;;;;;4.10;2.60;;;21.60;99.90;;;;;;5069788;28;20040;-63
2023/10/01 08:39:34;;;;;;;3.83;2.70;;;21.50;99.90;;;;;;5069490;28;20031;-63
2023/10/01 08:42:11;;;;;;;5.28;2.67;;;21.40;99.90;;;;;;5068920;28;20542;-63
2023/10/01 08:44:49;;;;;;;3.60;2.70;;;21.40;99.90;;;;;;5068958;28;20025;-63
2023/10/01 08:47:32;;;;;;;5.03;2.83;;;21.50;99.90;;;;;;5069177;28;20032;-63
2023/10/01 08:50:27;;;;;;;4.13;2.63;;;21.50;99.90;;;;;;5071037;28;20045;-63
2023/10/01 08:52:58;;;;;;;3.53;2.53;;;21.50;99.90;;;;;;5071613;28;20040;-63
2023/10/01 09:00:56;;;;;;;3.85;2.55;;;21.80;99.90;;;;;;5069076;28;20033;-63
2023/10/01 09:03:28;;;;;;;3.58;2.50;;;21.80;99.90;;;;;;5069255;28;20041;-63
2023/10/01 09:06:06;;;;;;;5.15;2.40;;;21.90;99.90;;;;;;5069388;28;20020;-63
2023/10/01 09:08:45;;;;;;;3.45;2.50;;;22.00;99.90;;;;;;5068842;28;20052;-63
2023/10/01 09:11:14;;;;;;;4.45;2.30;;;22.10;99.90;;;;;;5069209;28;20036;-63
2023/10/01 09:14:17;;;;;;;2.83;2.22;;;22.20;99.90;;;;;;5065995;28;20032;-61
2023/10/01 09:16:44;;;;;;;6.10;2.63;;;22.40;99.90;;;;;;5068226;28;20502;-62
2023/10/01 09:22:04;;;;;;;4.22;2.38;;;22.70;99.90;;;;;;5069061;28;20043;-62
2023/10/01 09:24:39;;;;;;;4.80;2.70;;;22.80;99.90;;;;;;5065398;28;20029;-61
2023/10/01 09:27:24;;;;;;;4.57;2.40;;;23.00;99.90;;;;;;5066794;28;20070;-61
2023/10/01 09:30:26;;;;;;;3.65;2.35;;;23.20;99.90;;;;;;5067366;28;20135;-61
2023/10/01 09:32:54;;;;;;;3.47;2.35;;;23.30;99.90;;;;;;5067999;28;20085;-61
2023/10/01 09:35:30;;;;;;;4.10;2.45;;;23.40;99.90;;;;;;5080613;28;20028;-61
2023/10/01 09:38:13;;;;;;;3.70;2.40;;;23.60;99.90;;;;;;5084461;28;20024;-62
2023/10/01 09:40:44;;;;;;;3.75;2.45;;;23.70;99.90;;;;;;5073668;28;20028;-60
2023/10/01 09:43:34;;;;;;;3.25;2.40;;;23.90;99.90;;;;;;5092704;28;20115;-61
2023/10/01 09:46:06;;;;;;;4.72;2.33;;;24.10;99.90;;;;;;5094664;28;20024;-63
2023/10/01 09:48:33;;;;;;;4.38;2.30;;;24.10;99.90;;;;;;5095294;28;20494;-63
2023/10/01 09:51:18;;;;;;;4.72;2.60;;;24.20;99.90;;;;;;5093184;28;20032;-63
2023/10/01 09:54:00;;;;;;;3.30;2.30;;;24.30;99.90;;;;;;5094522;28;20402;-62
2023/10/01 09:56:26;;;;;;;3.33;2.30;;;24.30;99.90;;;;;;5094031;28;20482;-59
2023/10/01 09:59:08;;;;;;;2.80;2.20;;;24.40;99.90;;;;;;5094726;28;20112;-61
2023/10/01 10:01:36;;;;;;;6.50;2.30;;;24.30;99.90;;;;;;5093096;28;20494;-61
2023/10/01 10:04:08;;;;;;;3.92;2.58;;;24.30;99.90;;;;;;5094044;28;20032;-62
2023/10/01 10:06:34;;;;;;;3.13;2.05;;;24.30;99.90;;;;;;5095151;28;20024;-62
2023/10/01 10:09:07;;;;;;;6.80;2.53;;;24.40;99.90;;;;;;5093637;28;20044;-61
2023/10/01 10:11:37;;;;;;;4.93;2.15;;;24.50;99.90;;;;;;5092620;28;20111;-61
2023/10/01 10:14:28;;;;;;;11.50;3.33;;;24.60;99.90;;;;;;5094126;28;20028;-60
2023/10/01 10:16:58;;;;;;;7.25;2.15;;;24.60;99.90;;;;;;5094646;28;20059;-59
2023/10/01 10:19:25;;;;;;;8.80;2.83;;;24.60;99.90;;;;;;5094143;28;20051;-60
2023/10/01 10:24:29;;;;;;;21.55;3.85;;;24.80;99.90;;;;;;5093905;28;20043;-60
2023/10/01 10:27:06;;;;;;;5.88;2.60;;;24.90;99.90;;;;;;5094510;28;20093;-60
2023/10/01 10:29:56;;;;;;;6.72;2.30;;;25.00;99.90;;;;;;5094391;28;20402;-61
2023/10/01 10:32:27;;;;;;;5.47;2.17;;;25.10;99.90;;;;;;5092895;28;20059;-60
2023/10/01 10:35:14;;;;;;;2.97;2.00;;;25.10;99.90;;;;;;5092750;28;20024;-61
2023/10/01 10:37:44;;;;;;;2.92;2.00;;;25.20;99.90;;;;;;5094019;28;20436;-60
2023/10/01 10:43:01;;;;;;;5.00;2.35;;;25.40;99.90;;;;;;5092934;28;20024;-59
2023/10/01 10:45:42;;;;;;;2.47;1.85;;;25.60;99.90;;;;;;5092221;28;20032;-61
2023/10/01 10:48:24;;;;;;;3.58;2.08;;;25.50;99.90;;;;;;5093915;28;20576;-61
2023/10/01 10:50:56;;;;;;;2.17;1.80;;;25.80;99.90;;;;;;5092035;28;20074;-60
2023/10/01 10:53:29;;;;;;;3.35;2.20;;;26.00;99.90;;;;;;5093239;28;20403;-59
2023/10/01 10:56:07;;;;;;;2.97;2.22;;;26.10;99.90;;;;;;5093144;28;20538;-59
2023/10/01 10:59:03;;;;;;;2.45;2.10;;;26.10;99.90;;;;;;5092348;28;20058;-60
2023/10/01 11:01:46;;;;;;;2.78;2.10;;;26.20;99.90;;;;;;5091476;28;20036;-59
2023/10/01 11:04:14;;;;;;;2.75;1.90;;;26.20;99.90;;;;;;5093340;28;20059;-61
2023/10/01 11:06:42;;;;;;;2.63;1.85;;;26.30;99.90;;;;;;5092729;28;20028;-61
2023/10/01 11:12:01;;;;;;;2.45;2.00;;;26.60;99.90;;;;;;5090920;28;20044;-60
2023/10/01 11:14:29;;;;;;;3.28;2.22;;;26.80;99.90;;;;;;5092916;28;20055;-60
2023/10/01 11:16:55;;;;;;;2.78;2.10;;;26.90;99.90;;;;;;5093102;28;20115;-61
2023/10/01 11:19:25;;;;;;;2.78;1.90;;;27.10;99.90;;;;;;5093150;28;20500;-61
2023/10/01 11:22:00;;;;;;;3.35;1.77;;;27.10;99.90;;;;;;5091684;28;20020;-61
2023/10/01 11:24:32;;;;;;;3.65;1.90;;;27.20;99.90;;;;;;5092901;28;20547;-62
2023/10/01 11:27:26;;;;;;;3.95;1.90;;;27.30;99.90;;;;;;5092986;28;20486;-61
2023/10/01 11:30:16;;;;;;;2.60;1.85;;;27.30;99.90;;;;;;5093352;28;20044;-61
2023/10/01 11:32:58;;;;;;;3.58;2.10;;;27.30;99.90;;;;;;5091793;28;20589;-60
2023/10/01 11:35:36;;;;;;;3.33;2.90;;;27.40;99.90;;;;;;5091153;28;20016;-61
2023/10/01 11:38:11;;;;;;;4.07;2.70;;;27.50;99.90;;;;;;5088582;28;20012;-61
2023/10/01 11:43:27;;;;;;;3.35;2.40;;;27.60;99.90;;;;;;5091410;28;20720;-59
2023/10/01 11:46:19;;;;;;;2.88;2.05;;;27.80;99.90;;;;;;5088974;28;20485;-61
2023/10/01 11:48:56;;;;;;;3.92;2.83;;;28.00;99.90;;;;;;5090944;28;20090;-62
2023/10/01 11:51:43;;;;;;;3.13;2.20;;;27.90;99.90;;;;;;5088973;28;20032;-62
2023/10/01 11:54:11;;;;;;;2.17;1.90;;;27.90;99.90;;;;;;5085565;28;20088;-62
2023/10/01 11:57:04;;;;;;;3.25;1.77;;;28.00;99.90;;;;;;5091608;28;20057;-61
2023/10/01 11:59:30;;;;;;;2.17;1.70;;;28.00;99.90;;;;;;5091809;28;20031;-62
2023/10/01 12:02:15;;;;;;;1.92;1.73;;;28.20;99.90;;;;;;5090394;28;20506;-62
2023/10/01 12:04:44;;;;;;;4.05;1.73;;;28.30;99.90;;;;;;5089384;28;20024;-61
2023/10/01 12:07:17;;;;;;;2.08;1.60;;;28.30;99.90;;;;;;5091918;28;20047;-62
2023/10/01 12:09:50;;;;;;;1.90;1.70;;;28.20;99.90;;;;;;5091933;28;20153;-60
2023/10/01 12:12:21;;;;;;;2.78;1.70;;;28.20;99.90;;;;;;5088292;28;20032;-62
2023/10/01 12:14:54;;;;;;;2.47;1.80;;;28.40;99.90;;;;;;5087543;28;20036;-59
2023/10/01 12:17:23;;;;;;;2.33;1.80;;;28.60;99.90;;;;;;5088467;28;20024;-60
2023/10/01 12:19:57;;;;;;;1.70;1.52;;;28.70;99.90;;;;;;5091720;28;20027;-62
2023/10/01 12:22:26;;;;;;;2.08;1.52;;;28.90;99.90;;;;;;5090471;28;20497;-62
2023/10/01 12:24:59;;;;;;;3.00;1.77;;;28.90;99.90;;;;;;5091179;28;20024;-62
2023/10/01 12:27:38;;;;;;;3.17;1.52;;;28.80;99.90;;;;;;5091247;28;20024;-61
2023/10/01 12:30:27;;;;;;;2.78;1.52;;;28.80;99.90;;;;;;5090482;28;20038;-61
2023/10/01 12:33:05;;;;;;;5.25;2.00;;;28.80;99.90;;;;;;5088776;28;20032;-61
2023/10/01 12:35:34;;;;;;;2.10;1.70;;;28.90;99.90;;;;;;5089303;28;20513;-61
2023/10/01 12:40:52;;;;;;;1.65;1.50;;;29.10;99.90;;;;;;5088459;28;20407;-62
2023/10/01 12:43:37;;;;;;;2.55;1.75;;;29.30;99.90;;;;;;5089016;28;20081;-63
2023/10/01 12:46:13;;;;;;;2.95;1.52;;;29.50;99.90;;;;;;5089719;28;20016;-62
2023/10/01 12:48:57;;;;;;;2.05;1.50;;;29.70;99.90;;;;;;5086820;28;20020;-62
2023/10/01 12:51:32;;;;;;;2.10;1.50;;;29.80;99.90;;;;;;5088049;28;20050;-62
2023/10/01 12:53:59;;;;;;;1.92;1.50;;;29.90;99.90;;;;;;5089504;28;20085;-60
2023/10/01 12:59:20;;;;;;;2.03;1.60;;;29.90;99.90;;;;;;5059279;28;20147;-62
2023/10/01 13:01:53;;;;;;;3.72;1.60;;;30.00;99.90;;;;;;5057514;28;20347;-63
2023/10/01 13:04:22;;;;;;;3.20;2.90;;;30.10;99.90;;;;;;5058928;28;20422;-61
2023/10/01 13:06:50;;;;;;;4.25;2.53;;;30.30;99.90;;;;;;5059235;28;20071;-62
2023/10/01 13:09:35;;;;;;;3.22;2.10;;;30.40;99.90;;;;;;5058721;28;20155;-62
2023/10/01 13:12:10;;;;;;;2.63;2.00;;;30.50;99.90;;;;;;5056691;28;20033;-62
2023/10/01 13:14:35;;;;;;;2.97;1.88;;;30.80;99.90;;;;;;5059549;28;20071;-62
2023/10/01 13:17:02;;;;;;;2.17;1.95;;;30.60;99.90;;;;;;5058881;28;20431;-61
2023/10/01 13:19:33;;;;;;;2.55;1.92;;;30.70;99.90;;;;;;5057032;28;20048;-60
2023/10/01 13:22:05;;;;;;;2.42;1.70;;;30.70;99.90;;;;;;5058004;28;20553;-62
2023/10/01 13:24:32;;;;;;;2.27;1.40;;;30.70;99.90;;;;;;5056775;28;20036;-61
2023/10/01 13:27:11;;;;;;;2.72;1.80;;;30.90;99.90;;;;;;5059549;28;20021;-62
2023/10/01 13:29:40;;;;;;;1.67;1.58;;;30.90;99.90;;;;;;5054738;28;20452;-61
2023/10/01 13:32:15;;;;;;;2.40;1.80;;;31.00;99.90;;;;;;5058319;28;20186;-62
2023/10/01 13:34:54;;;;;;;3.50;2.03;;;31.00;99.90;;;;;;5054914;28;20036;-61
2023/10/01 13:40:10;;;;;;;2.33;1.70;;;31.30;99.90;;;;;;5090656;28;20518;-61
2023/10/01 14:10:04;;;;;;;3.15;2.53;;;32.00;99.90;;;;;;5088777;28;20430;-62
2023/10/01 14:12:54;;;;;;;2.97;2.67;;;32.10;99.90;;;;;;5090198;28;20024;-62
2023/10/01 14:15:21;;;;;;;3.80;2.70;;;32.30;99.90;;;;;;5088464;28;20028;-60
2023/10/01 14:18:08;;;;;;;2.60;2.40;;;32.50;99.90;;;;;;5087248;28;20024;-62
2023/10/01 14:26:10;;;;;;;2.45;2.25;;;32.90;99.90;;;;;;5086808;28;20035;-62
2023/10/01 14:28:36;;;;;;;2.65;2.10;;;33.00;99.90;;;;;;5090766;28;20111;-61
2023/10/01 14:31:10;;;;;;;2.90;2.22;;;33.10;99.90;;;;;;5094214;28;20048;-62
2023/10/01 14:33:39;;;;;;;2.47;2.20;;;33.10;99.90;;;;;;5094495;28;20483;-61
2023/10/01 14:36:05;;;;;;;3.53;2.22;;;33.20;99.90;;;;;;5094460;28;20210;-61
2023/10/01 14:38:40;;;;;;;4.25;2.40;;;33.20;99.90;;;;;;5094372;28;20153;-62
2023/10/01 14:41:10;;;;;;;4.97;2.17;;;33.20;99.90;;;;;;5094408;28;20024;-62